Time;durP1;ratioP1;P1;durP2;ratioP2;P2;SDS_P1;SDS_P2;PMS_P1;PMS_P2;Temp;Humidity;BMP_temperature;BMP_pressure;BME280_temperature;BME280_humidity;BME280_pressure;Samples;Min_cycle;Max_cycle;Signal;HPM_P1;HPM_P2
2022/01/20 00:00:51;;;;;;;34.60;4.37;;;;;;;;;;4989765;28;20213;-61
2022/01/20 00:03:21;;;;;;;21.37;3.60;;;;;;;;;;4994697;28;20212;-61
2022/01/20 00:08:32;;;;;;;20.37;3.73;;;;;;;;;;4994416;28;20216;-61
2022/01/20 00:27:22;;;;;;;21.13;3.67;;;;;;;;;;5012760;28;20303;-61
2022/01/20 00:32:27;;;;;;;29.37;3.60;;;;;;;;;;5013379;28;20213;-61
2022/01/20 00:37:19;;;;;;;23.43;3.40;;;;;;;;;;4995859;28;20298;-61
2022/01/20 00:39:44;;;;;;;24.87;4.03;;;;;;;;;;4996319;28;20235;-61
2022/01/20 00:42:09;;;;;;;23.20;3.90;;;;;;;;;;5012636;28;20660;-61
2022/01/20 00:44:34;;;;;;;27.10;3.70;;;;;;;;;;5013762;28;20274;-61
2022/01/20 00:47:00;;;;;;;25.27;3.70;;;;;;;;;;5014146;28;20226;-61
2022/01/20 00:49:25;;;;;;;24.20;3.10;;;;;;;;;;5012776;28;20270;-61
2022/01/20 00:51:51;;;;;;;21.47;3.43;;;;;;;;;;5013838;28;20212;-61
2022/01/20 00:54:16;;;;;;;19.97;2.77;;;;;;;;;;5013222;28;20216;-61
2022/01/20 00:56:41;;;;;;;22.93;3.40;;;;;;;;;;4995328;28;20312;-61
2022/01/20 00:59:06;;;;;;;21.37;3.70;;;;;;;;;;5012939;28;20412;-61
2022/01/20 01:01:32;;;;;;;24.53;3.53;;;;;;;;;;4998348;28;20295;-61
2022/01/20 01:03:57;;;;;;;20.57;3.33;;;;;;;;;;4993158;28;20562;-61
2022/01/20 01:09:06;;;;;;;18.87;2.97;;;;;;;;;;4992477;28;20223;-61
2022/01/20 01:11:32;;;;;;;19.80;2.67;;;;;;;;;;4976338;28;20299;-60
2022/01/20 01:13:59;;;;;;;21.57;3.03;;;;;;;;;;4993628;28;20584;-60
2022/01/20 01:16:35;;;;;;;19.87;2.70;;;;;;;;;;4970814;28;20574;-60
2022/01/20 01:21:51;;;;;;;15.00;3.00;;;;;;;;;;4974100;28;20341;-60
2022/01/20 01:24:17;;;;;;;17.67;2.70;;;;;;;;;;4956557;28;20213;-60
2022/01/20 01:26:42;;;;;;;20.63;2.87;;;;;;;;;;4974108;28;20205;-60
2022/01/20 01:29:12;;;;;;;13.60;2.37;;;;;;;;;;4973467;28;20221;-60
2022/01/20 01:31:40;;;;;;;12.33;2.27;;;;;;;;;;4973302;28;20228;-60
2022/01/20 01:34:14;;;;;;;16.17;2.67;;;;;;;;;;4973427;28;20221;-61
2022/01/20 01:36:51;;;;;;;18.57;2.73;;;;;;;;;;4973851;28;20236;-60
2022/01/20 01:39:16;;;;;;;17.50;2.70;;;;;;;;;;4973258;28;20217;-60
2022/01/20 01:41:41;;;;;;;13.47;2.83;;;;;;;;;;4956623;28;20692;-60
2022/01/20 01:44:09;;;;;;;16.23;2.43;;;;;;;;;;4972400;28;20420;-61
2022/01/20 01:46:35;;;;;;;16.83;3.03;;;;;;;;;;4974142;28;20217;-60
2022/01/20 01:49:00;;;;;;;15.83;2.40;;;;;;;;;;4956341;28;20206;-60
2022/01/20 01:51:25;;;;;;;12.00;2.33;;;;;;;;;;4972031;28;20221;-60
2022/01/20 01:53:51;;;;;;;16.40;2.20;;;;;;;;;;4956010;28;20217;-60
2022/01/20 01:56:16;;;;;;;16.67;2.93;;;;;;;;;;4973204;28;20217;-60
2022/01/20 01:58:41;;;;;;;23.27;2.70;;;;;;;;;;4955564;28;20224;-60
2022/01/20 02:01:07;;;;;;;17.13;2.27;;;;;;;;;;4984797;28;20721;-60
2022/01/20 02:03:41;;;;;;;16.47;2.20;;;;;;;;;;4992908;28;20217;-60
2022/01/20 02:08:40;;;;;;;16.23;2.63;;;;;;;;;;4992790;28;20228;-60
2022/01/20 02:19:18;;;;;;;19.00;2.57;;;;;;;;;;4972178;28;20884;-61
2022/01/20 02:21:46;;;;;;;15.87;2.47;;;;;;;;;;4973220;28;20240;-60
2022/01/20 02:24:11;;;;;;;14.73;2.20;;;;;;;;;;5011030;28;20239;-61
2022/01/20 02:26:36;;;;;;;15.98;2.65;;;;;;;;;;5011679;28;20683;-60
2022/01/20 02:29:02;;;;;;;15.53;2.23;;;;;;;;;;5011736;28;20783;-60
2022/01/20 02:31:27;;;;;;;14.40;2.20;;;;;;;;;;5012492;28;20213;-60
2022/01/20 02:33:54;;;;;;;16.40;3.10;;;;;;;;;;5011620;28;20219;-60
2022/01/20 02:36:19;;;;;;;19.10;2.43;;;;;;;;;;4994777;28;20228;-60
2022/01/20 02:38:51;;;;;;;15.97;2.57;;;;;;;;;;5012068;28;20235;-60
2022/01/20 02:46:44;;;;;;;14.00;3.07;;;;;;;;;;4997487;28;20215;-60
2022/01/20 02:49:12;;;;;;;17.70;2.80;;;;;;;;;;4993527;28;20584;-60
2022/01/20 02:51:37;;;;;;;20.23;2.70;;;;;;;;;;4994694;28;20243;-60
2022/01/20 02:54:03;;;;;;;14.97;2.27;;;;;;;;;;5011405;28;20262;-60
2022/01/20 02:56:29;;;;;;;17.10;2.53;;;;;;;;;;5011455;28;20584;-60
2022/01/20 02:58:54;;;;;;;16.87;2.50;;;;;;;;;;5011941;28;20587;-60
2022/01/20 03:01:20;;;;;;;15.20;2.20;;;;;;;;;;4997013;28;20360;-60
2022/01/20 03:03:45;;;;;;;16.77;2.10;;;;;;;;;;4995035;28;20217;-60
2022/01/20 03:06:10;;;;;;;19.57;2.77;;;;;;;;;;4995576;28;20217;-60
2022/01/20 03:08:36;;;;;;;15.90;2.40;;;;;;;;;;4995208;28;20205;-60
2022/01/20 03:11:01;;;;;;;14.73;2.13;;;;;;;;;;4995434;28;20267;-60
2022/01/20 03:13:27;;;;;;;15.33;2.60;;;;;;;;;;4995690;28;20628;-60
2022/01/20 03:15:52;;;;;;;20.27;2.70;;;;;;;;;;4995122;28;20205;-60
2022/01/20 03:18:17;;;;;;;16.50;2.63;;;;;;;;;;4975984;28;20233;-60
2022/01/20 03:20:43;;;;;;;17.63;2.17;;;;;;;;;;4976286;28;20226;-61
2022/01/20 03:23:08;;;;;;;14.07;2.23;;;;;;;;;;4996637;28;20667;-61
2022/01/20 03:25:33;;;;;;;13.57;2.37;;;;;;;;;;5015444;28;20209;-62
2022/01/20 03:27:59;;;;;;;11.43;1.80;;;;;;;;;;5015268;28;20216;-61
2022/01/20 03:30:24;;;;;;;13.63;1.83;;;;;;;;;;5013950;28;20209;-61
2022/01/20 03:32:50;;;;;;;11.63;2.07;;;;;;;;;;5015387;28;20540;-61
2022/01/20 03:35:15;;;;;;;17.23;2.67;;;;;;;;;;5014536;28;20314;-61
2022/01/20 03:37:40;;;;;;;18.30;2.60;;;;;;;;;;4996867;28;20596;-61
2022/01/20 03:40:06;;;;;;;14.37;1.90;;;;;;;;;;5014412;28;20582;-61
2022/01/20 03:42:31;;;;;;;16.10;2.23;;;;;;;;;;5015324;28;20221;-61
2022/01/20 03:44:57;;;;;;;14.48;2.60;;;;;;;;;;5014161;28;20240;-61
2022/01/20 03:47:24;;;;;;;13.30;1.70;;;;;;;;;;5014602;28;20236;-61
2022/01/20 03:49:54;;;;;;;15.97;2.30;;;;;;;;;;5014926;28;20212;-60
2022/01/20 03:52:20;;;;;;;15.47;2.10;;;;;;;;;;5013681;28;20221;-61
2022/01/20 03:54:45;;;;;;;13.73;2.43;;;;;;;;;;5014653;28;20216;-60
2022/01/20 03:57:10;;;;;;;12.10;2.27;;;;;;;;;;5013990;28;20232;-60
2022/01/20 03:59:35;;;;;;;15.05;2.30;;;;;;;;;;4996336;28;20299;-60
2022/01/20 04:02:01;;;;;;;13.37;1.80;;;;;;;;;;4995104;28;20224;-61
2022/01/20 04:04:26;;;;;;;11.30;2.10;;;;;;;;;;4977190;28;20239;-60
2022/01/20 04:06:51;;;;;;;12.03;1.70;;;;;;;;;;4994639;28;20632;-60
2022/01/20 04:09:16;;;;;;;11.47;1.90;;;;;;;;;;4994350;28;20217;-60
2022/01/20 04:11:42;;;;;;;11.77;1.70;;;;;;;;;;4993965;28;20652;-61
2022/01/20 04:14:07;;;;;;;16.40;2.10;;;;;;;;;;4993804;28;20213;-61
2022/01/20 04:16:38;;;;;;;9.10;1.30;;;;;;;;;;4989489;28;20230;-61
2022/01/20 04:19:07;;;;;;;10.93;1.50;;;;;;;;;;4974327;28;20218;-61
2022/01/20 04:21:32;;;;;;;8.33;1.23;;;;;;;;;;4975216;28;20697;-60
2022/01/20 04:23:58;;;;;;;10.50;1.80;;;;;;;;;;5009909;28;20231;-60
2022/01/20 04:26:23;;;;;;;10.07;1.40;;;;;;;;;;5012816;28;20255;-60
2022/01/20 04:28:53;;;;;;;13.80;1.53;;;;;;;;;;4996794;28;20217;-60
2022/01/20 04:31:18;;;;;;;8.53;1.60;;;;;;;;;;5013587;28;20582;-60
2022/01/20 04:33:44;;;;;;;12.50;1.67;;;;;;;;;;5013151;28;20208;-60
2022/01/20 04:36:09;;;;;;;10.33;1.40;;;;;;;;;;5013436;28;20215;-60
2022/01/20 04:38:34;;;;;;;9.40;1.67;;;;;;;;;;5014053;28;20225;-60
2022/01/20 04:41:00;;;;;;;14.30;1.50;;;;;;;;;;5013180;28;20279;-60
2022/01/20 04:43:26;;;;;;;9.73;1.43;;;;;;;;;;4995719;28;20675;-60
2022/01/20 04:46:00;;;;;;;11.57;1.57;;;;;;;;;;5013760;28;20204;-60
2022/01/20 04:48:43;;;;;;;9.80;1.70;;;;;;;;;;4996678;28;20215;-60
2022/01/20 04:59:21;;;;;;;18.10;2.03;;;;;;;;;;5013042;28;20220;-60
2022/01/20 05:01:47;;;;;;;10.73;1.73;;;;;;;;;;4995557;28;20217;-60
2022/01/20 05:04:12;;;;;;;11.53;1.97;;;;;;;;;;4993473;28;20224;-61
2022/01/20 05:06:40;;;;;;;14.50;2.08;;;;;;;;;;4993803;28;20251;-60
2022/01/20 05:09:06;;;;;;;13.30;1.87;;;;;;;;;;4975542;28;20321;-60
2022/01/20 05:11:33;;;;;;;18.20;2.37;;;;;;;;;;4993609;28;20216;-60
2022/01/20 05:13:59;;;;;;;12.53;1.97;;;;;;;;;;4993714;28;20213;-60
2022/01/20 05:16:24;;;;;;;14.68;2.10;;;;;;;;;;4987909;28;20213;-60
2022/01/20 05:18:49;;;;;;;17.50;2.80;;;;;;;;;;4974294;28;20226;-60
2022/01/20 05:21:15;;;;;;;20.83;3.07;;;;;;;;;;4973421;28;20237;-60
2022/01/20 05:23:40;;;;;;;19.27;2.73;;;;;;;;;;5003570;28;20216;-60
2022/01/20 05:26:05;;;;;;;20.77;2.70;;;;;;;;;;5011770;28;20228;-60
2022/01/20 05:28:30;;;;;;;14.30;2.53;;;;;;;;;;5012631;28;20219;-60
2022/01/20 05:30:56;;;;;;;18.50;2.90;;;;;;;;;;4994759;28;20212;-60
2022/01/20 05:33:21;;;;;;;15.67;2.23;;;;;;;;;;5012687;28;20217;-60
2022/01/20 05:35:46;;;;;;;19.53;2.40;;;;;;;;;;5012858;28;20293;-60
2022/01/20 05:38:12;;;;;;;19.20;2.70;;;;;;;;;;5011722;28;20267;-60
2022/01/20 05:40:37;;;;;;;21.73;2.50;;;;;;;;;;5013108;28;20225;-60
2022/01/20 05:43:03;;;;;;;17.43;2.83;;;;;;;;;;5011425;28;20262;-60
2022/01/20 05:45:28;;;;;;;20.30;3.10;;;;;;;;;;5012842;28;20263;-60
2022/01/20 05:48:00;;;;;;;17.93;2.40;;;;;;;;;;4995666;28;20212;-60
2022/01/20 05:50:26;;;;;;;20.17;2.50;;;;;;;;;;5011841;28;20212;-60
2022/01/20 05:52:51;;;;;;;20.97;2.70;;;;;;;;;;5012914;28;20216;-60
2022/01/20 05:55:17;;;;;;;19.37;2.70;;;;;;;;;;4994578;28;20224;-60
2022/01/20 05:57:42;;;;;;;16.07;2.67;;;;;;;;;;5011760;28;20776;-60
2022/01/20 06:00:10;;;;;;;16.03;2.57;;;;;;;;;;5008101;28;20307;-60
2022/01/20 06:03:35;;;;;;;19.88;2.20;;;;;;;;;;4993462;28;20267;-60
2022/01/20 06:05:20;;;;;;;19.07;2.50;;;;;;;;;;4991516;28;20209;-60
2022/01/20 06:07:46;;;;;;;17.47;2.70;;;;;;;;;;4992932;28;20216;-60
2022/01/20 06:10:11;;;;;;;23.90;3.77;;;;;;;;;;4992497;28;20343;-60
2022/01/20 06:12:36;;;;;;;20.30;2.73;;;;;;;;;;4992100;28;20296;-60
2022/01/20 06:15:02;;;;;;;20.23;2.70;;;;;;;;;;4992464;28;20217;-60
2022/01/20 06:17:29;;;;;;;19.13;2.63;;;;;;;;;;4980063;28;20305;-60
2022/01/20 06:19:54;;;;;;;13.87;2.13;;;;;;;;;;4972794;28;20210;-60
2022/01/20 06:22:19;;;;;;;16.87;3.03;;;;;;;;;;4981102;28;20229;-60
2022/01/20 06:24:45;;;;;;;17.80;2.70;;;;;;;;;;5012470;28;20220;-60
2022/01/20 06:27:10;;;;;;;16.80;2.50;;;;;;;;;;5011165;28;20224;-60
2022/01/20 06:29:35;;;;;;;15.40;2.20;;;;;;;;;;5012311;28;20729;-60
2022/01/20 06:32:01;;;;;;;17.17;2.40;;;;;;;;;;5012005;28;20267;-61
2022/01/20 06:34:26;;;;;;;23.13;2.90;;;;;;;;;;5011743;28;20247;-60
2022/01/20 06:36:51;;;;;;;16.50;2.63;;;;;;;;;;5012211;28;20228;-60
2022/01/20 06:39:17;;;;;;;17.43;2.70;;;;;;;;;;5014610;28;20585;-61
2022/01/20 06:41:42;;;;;;;24.07;2.57;;;;;;;;;;4998714;28;20209;-61
2022/01/20 06:44:07;;;;;;;21.33;2.63;;;;;;;;;;5015515;28;20223;-61
2022/01/20 06:46:33;;;;;;;18.37;2.97;;;;;;;;;;5015350;28;20219;-61
2022/01/20 06:48:58;;;;;;;15.77;2.40;;;;;;;;;;5016065;28;20262;-61
2022/01/20 06:51:23;;;;;;;16.27;2.57;;;;;;;;;;4997928;28;20205;-63
2022/01/20 06:53:48;;;;;;;18.63;2.97;;;;;;;;;;4997031;28;20468;-63
2022/01/20 06:56:14;;;;;;;16.93;2.57;;;;;;;;;;5015310;28;20710;-62
2022/01/20 06:58:39;;;;;;;14.37;2.83;;;;;;;;;;5005018;28;20341;-64
2022/01/20 07:01:04;;;;;;;18.60;2.67;;;;;;;;;;4985658;28;20547;-64
2022/01/20 07:03:29;;;;;;;15.40;1.93;;;;;;;;;;4996106;28;20267;-63
2022/01/20 07:05:55;;;;;;;15.60;2.20;;;;;;;;;;4996103;28;20566;-63
2022/01/20 07:08:20;;;;;;;12.60;3.37;;;;;;;;;;4977438;28;20249;-64
2022/01/20 07:10:46;;;;;;;13.57;3.30;;;;;;;;;;4995984;28;20213;-64
2022/01/20 07:13:11;;;;;;;26.43;9.67;;;;;;;;;;4995036;28;20220;-63
2022/01/20 07:15:36;;;;;;;16.23;5.57;;;;;;;;;;4995243;28;20268;-62
2022/01/20 07:18:02;;;;;;;27.53;10.70;;;;;;;;;;4977906;28;20723;-61
2022/01/20 07:20:28;;;;;;;23.83;8.40;;;;;;;;;;4959036;28;20206;-61
2022/01/20 07:22:54;;;;;;;17.20;4.00;;;;;;;;;;4975975;28;20213;-61
2022/01/20 07:25:20;;;;;;;17.43;4.07;;;;;;;;;;5014918;28;20324;-61
2022/01/20 07:27:45;;;;;;;15.57;4.37;;;;;;;;;;5015310;28;20244;-61
2022/01/20 07:30:11;;;;;;;19.20;2.83;;;;;;;;;;5013641;28;20236;-61
2022/01/20 07:32:36;;;;;;;16.17;4.13;;;;;;;;;;5015253;28;20295;-61
2022/01/20 07:35:02;;;;;;;13.70;4.37;;;;;;;;;;5014801;28;20221;-61
2022/01/20 07:37:27;;;;;;;16.40;3.07;;;;;;;;;;5014468;28;20259;-61
2022/01/20 07:39:53;;;;;;;17.43;3.80;;;;;;;;;;4996254;28;20233;-61
2022/01/20 07:42:18;;;;;;;34.40;16.20;;;;;;;;;;4991920;28;20248;-61
2022/01/20 07:44:44;;;;;;;25.77;12.93;;;;;;;;;;4977191;28;20755;-62
2022/01/20 07:47:09;;;;;;;17.10;4.00;;;;;;;;;;4994781;28;20295;-62
2022/01/20 07:49:34;;;;;;;17.57;9.23;;;;;;;;;;4993336;28;20252;-61
2022/01/20 07:51:59;;;;;;;11.63;4.13;;;;;;;;;;4982023;28;20583;-62
2022/01/20 07:54:25;;;;;;;15.47;3.97;;;;;;;;;;4975537;28;20221;-60
2022/01/20 07:56:51;;;;;;;13.50;3.10;;;;;;;;;;4975417;28;20230;-60
2022/01/20 07:59:17;;;;;;;15.37;2.40;;;;;;;;;;4975026;28;20213;-60
2022/01/20 08:01:42;;;;;;;12.17;3.07;;;;;;;;;;4974777;28;20297;-60
2022/01/20 08:04:07;;;;;;;10.90;2.57;;;;;;;;;;4993879;28;20213;-60
2022/01/20 08:06:33;;;;;;;10.47;2.40;;;;;;;;;;4994135;28;20575;-60
2022/01/20 08:08:58;;;;;;;11.47;2.43;;;;;;;;;;4995033;28;20209;-62
2022/01/20 08:11:24;;;;;;;15.93;2.40;;;;;;;;;;4993852;28;20212;-62
2022/01/20 08:13:49;;;;;;;11.90;2.37;;;;;;;;;;4994551;28;20220;-62
2022/01/20 08:16:14;;;;;;;14.37;2.30;;;;;;;;;;4991217;28;20582;-62
2022/01/20 08:18:40;;;;;;;8.37;2.00;;;;;;;;;;4973968;28;20685;-61
2022/01/20 08:21:05;;;;;;;11.80;1.93;;;;;;;;;;4974910;28;20372;-62
2022/01/20 08:23:30;;;;;;;17.00;2.10;;;;;;;;;;5002659;28;20214;-61
2022/01/20 08:25:56;;;;;;;9.23;1.70;;;;;;;;;;4989336;28;20265;-61
2022/01/20 08:28:22;;;;;;;17.63;2.30;;;;;;;;;;4993802;28;20205;-62
2022/01/20 08:30:48;;;;;;;13.53;2.33;;;;;;;;;;4994195;28;20216;-61
2022/01/20 08:33:14;;;;;;;14.83;2.23;;;;;;;;;;4972058;28;20231;-62
2022/01/20 08:35:39;;;;;;;14.63;2.50;;;;;;;;;;4975330;28;20241;-62
2022/01/20 08:38:06;;;;;;;12.50;2.60;;;;;;;;;;4985517;28;20257;-62
2022/01/20 08:40:32;;;;;;;15.30;2.40;;;;;;;;;;4992765;28;20304;-60
2022/01/20 08:42:57;;;;;;;13.23;1.60;;;;;;;;;;4994212;28;20749;-61
2022/01/20 08:45:24;;;;;;;18.90;2.47;;;;;;;;;;4993971;28;20589;-61
2022/01/20 08:47:52;;;;;;;13.03;2.43;;;;;;;;;;4993413;28;20299;-61
2022/01/20 08:50:17;;;;;;;14.70;2.00;;;;;;;;;;4993802;28;20688;-61
2022/01/20 08:52:42;;;;;;;13.10;1.90;;;;;;;;;;4994426;28;20293;-61
2022/01/20 08:55:08;;;;;;;13.13;2.07;;;;;;;;;;4992799;28;20707;-61
2022/01/20 08:57:33;;;;;;;14.00;2.70;;;;;;;;;;4993572;28;20232;-60
2022/01/20 08:59:58;;;;;;;15.67;2.13;;;;;;;;;;4993143;28;20209;-61
2022/01/20 09:02:24;;;;;;;15.27;2.07;;;;;;;;;;4976065;28;20248;-61
2022/01/20 09:04:49;;;;;;;13.17;1.80;;;;;;;;;;4989815;28;20261;-61
2022/01/20 09:07:14;;;;;;;15.03;2.23;;;;;;;;;;4986284;28;20241;-61
2022/01/20 09:09:42;;;;;;;14.60;1.83;;;;;;;;;;4960781;28;20221;-61
2022/01/20 09:15:27;;;;;;;13.03;2.30;;;;;;;;;;4980000;28;20220;-62
2022/01/20 09:17:45;;;;;;;12.20;2.00;;;;;;;;;;4993597;28;20228;-62
2022/01/20 09:20:10;;;;;;;17.57;2.60;;;;;;;;;;4992764;28;20217;-62
2022/01/20 09:22:36;;;;;;;15.10;2.00;;;;;;;;;;4999070;28;20229;-61
2022/01/20 09:25:01;;;;;;;12.60;1.90;;;;;;;;;;4995441;28;20260;-62
2022/01/20 09:27:26;;;;;;;12.63;2.03;;;;;;;;;;4993498;28;20252;-61
2022/01/20 09:29:52;;;;;;;13.17;2.27;;;;;;;;;;4975324;28;20209;-62
2022/01/20 09:32:19;;;;;;;14.00;2.10;;;;;;;;;;4975408;28;20561;-61
2022/01/20 09:34:45;;;;;;;13.37;2.20;;;;;;;;;;4993503;28;20217;-61
2022/01/20 09:37:10;;;;;;;12.33;2.00;;;;;;;;;;4956884;28;20252;-62
2022/01/20 09:39:37;;;;;;;13.37;2.27;;;;;;;;;;4973988;28;20217;-61
2022/01/20 09:42:03;;;;;;;14.33;2.03;;;;;;;;;;4973057;28;20582;-63
2022/01/20 09:44:28;;;;;;;14.38;2.25;;;;;;;;;;4998235;28;20220;-62
2022/01/20 09:46:53;;;;;;;13.23;2.00;;;;;;;;;;5013006;28;20214;-62
2022/01/20 09:49:19;;;;;;;13.97;2.20;;;;;;;;;;4993005;28;20280;-62
2022/01/20 09:51:44;;;;;;;13.77;2.70;;;;;;;;;;4993237;28;20221;-61
2022/01/20 09:54:10;;;;;;;13.73;2.63;;;;;;;;;;4992682;28;20201;-61
2022/01/20 09:56:35;;;;;;;14.20;2.37;;;;;;;;;;4974875;28;20627;-61
2022/01/20 09:59:01;;;;;;;11.83;2.00;;;;;;;;;;4992414;28;20255;-62
2022/01/20 10:01:34;;;;;;;14.10;2.50;;;;;;;;;;4993083;28;20342;-61
2022/01/20 10:04:00;;;;;;;14.60;2.30;;;;;;;;;;4992043;28;20217;-61
2022/01/20 10:06:25;;;;;;;13.10;2.23;;;;;;;;;;4992696;28;20215;-61
2022/01/20 10:08:56;;;;;;;14.77;2.43;;;;;;;;;;4992815;28;20256;-62
2022/01/20 10:11:22;;;;;;;13.57;2.60;;;;;;;;;;4991477;28;20564;-61
2022/01/20 10:13:47;;;;;;;14.70;2.33;;;;;;;;;;4991934;28;20300;-61
2022/01/20 10:16:14;;;;;;;11.03;2.00;;;;;;;;;;4989573;28;20213;-61
2022/01/20 10:18:47;;;;;;;7.73;1.60;;;;;;;;;;4972403;28;20598;-61
2022/01/20 10:21:12;;;;;;;13.65;2.15;;;;;;;;;;4952356;28;20230;-62
2022/01/20 10:23:39;;;;;;;13.67;2.20;;;;;;;;;;4982924;28;20304;-62
2022/01/20 10:26:06;;;;;;;11.40;1.67;;;;;;;;;;4991646;28;20240;-62
2022/01/20 10:28:43;;;;;;;14.77;2.13;;;;;;;;;;4991207;28;20736;-62
2022/01/20 10:31:11;;;;;;;13.02;2.10;;;;;;;;;;4992315;28;20248;-62
2022/01/20 10:33:55;;;;;;;14.93;2.08;;;;;;;;;;4992035;28;20217;-62
2022/01/20 10:36:21;;;;;;;15.68;3.70;;;;;;;;;;4992071;28;20672;-62
2022/01/20 10:38:49;;;;;;;14.32;2.63;;;;;;;;;;4992208;28;20244;-61
2022/01/20 10:41:14;;;;;;;15.48;2.50;;;;;;;;;;4991823;28;20213;-62
2022/01/20 10:43:39;;;;;;;16.27;2.42;;;;;;;;;;4976666;28;20685;-62
2022/01/20 10:46:05;;;;;;;14.63;2.78;;;;;;;;;;4972143;28;20245;-61
2022/01/20 10:48:31;;;;;;;15.60;2.20;;;;;;;;;;4952703;28;20643;-60
2022/01/20 10:50:56;;;;;;;16.57;2.90;;;;;;;;;;4967232;28;20453;-63
2022/01/20 10:53:21;;;;;;;12.60;2.30;;;;;;;;;;4970929;28;20293;-63
2022/01/20 10:55:47;;;;;;;15.40;2.50;;;;;;;;;;4973315;28;20210;-61
2022/01/20 10:58:12;;;;;;;15.25;2.42;;;;;;;;;;4972391;28;20236;-62
2022/01/20 11:00:42;;;;;;;13.48;2.22;;;;;;;;;;4964387;28;20218;-62
2022/01/20 11:03:07;;;;;;;17.73;2.70;;;;;;;;;;4953732;28;20256;-60
2022/01/20 11:05:33;;;;;;;11.93;2.60;;;;;;;;;;4953607;28;20282;-60
2022/01/20 11:07:59;;;;;;;14.35;2.60;;;;;;;;;;4953224;28;20226;-62
2022/01/20 11:10:25;;;;;;;16.05;2.80;;;;;;;;;;4953331;28;20215;-61
2022/01/20 11:12:50;;;;;;;10.50;2.45;;;;;;;;;;4970988;28;20213;-62
2022/01/20 11:15:16;;;;;;;16.10;2.88;;;;;;;;;;4972013;28;20226;-62
2022/01/20 11:17:42;;;;;;;17.52;3.45;;;;;;;;;;4957445;28;20313;-61
2022/01/20 11:20:09;;;;;;;18.48;3.10;;;;;;;;;;4952130;28;20286;-62
2022/01/20 11:22:35;;;;;;;12.57;2.60;;;;;;;;;;4977532;28;20240;-61
2022/01/20 11:25:02;;;;;;;12.88;2.30;;;;;;;;;;4993152;28;20248;-62
2022/01/20 11:27:34;;;;;;;11.57;2.58;;;;;;;;;;4995418;28;20650;-62
2022/01/20 11:30:01;;;;;;;11.80;2.17;;;;;;;;;;4995735;28;20248;-61
2022/01/20 11:32:27;;;;;;;12.18;2.28;;;;;;;;;;4995473;28;20221;-61
2022/01/20 11:35:04;;;;;;;13.95;2.55;;;;;;;;;;4977288;28;20279;-61
2022/01/20 11:37:32;;;;;;;12.65;1.67;;;;;;;;;;4995350;28;20320;-61
2022/01/20 11:40:06;;;;;;;11.13;1.93;;;;;;;;;;4995617;28;20563;-61
2022/01/20 11:42:32;;;;;;;10.95;1.98;;;;;;;;;;4993147;28;20235;-61
2022/01/20 11:44:57;;;;;;;12.13;2.30;;;;;;;;;;4995097;28;20213;-61
2022/01/20 11:47:30;;;;;;;12.43;2.33;;;;;;;;;;4989893;28;20236;-61
2022/01/20 11:49:55;;;;;;;13.17;2.40;;;;;;;;;;4994111;28;20208;-61
2022/01/20 11:52:24;;;;;;;12.60;2.10;;;;;;;;;;4996768;28;20217;-61
2022/01/20 11:54:49;;;;;;;10.00;1.88;;;;;;;;;;5014642;28;20208;-61
2022/01/20 11:57:16;;;;;;;11.90;2.60;;;;;;;;;;5013154;28;20231;-61
2022/01/20 11:59:42;;;;;;;10.77;1.70;;;;;;;;;;5014111;28;20544;-61
2022/01/20 12:02:08;;;;;;;8.97;1.70;;;;;;;;;;4990956;28;20213;-62
2022/01/20 12:04:34;;;;;;;14.20;2.65;;;;;;;;;;4974795;28;20218;-61
2022/01/20 12:06:59;;;;;;;11.83;1.90;;;;;;;;;;4958179;28;20218;-61
2022/01/20 12:09:28;;;;;;;9.48;1.70;;;;;;;;;;4977506;28;22313;-60
2022/01/20 12:11:54;;;;;;;9.25;1.67;;;;;;;;;;4976505;28;20581;-61
2022/01/20 12:14:32;;;;;;;10.38;1.67;;;;;;;;;;4987324;28;20212;-61
2022/01/20 12:17:01;;;;;;;10.00;2.17;;;;;;;;;;4968673;28;20677;-59
2022/01/20 12:19:26;;;;;;;10.90;1.53;;;;;;;;;;4974986;28;20256;-61
2022/01/20 12:21:51;;;;;;;6.47;1.50;;;;;;;;;;4942241;28;20322;-60
2022/01/20 12:24:17;;;;;;;8.87;1.70;;;;;;;;;;4973021;28;20574;-60
2022/01/20 12:26:42;;;;;;;8.43;1.55;;;;;;;;;;4974881;28;20345;-61
2022/01/20 12:29:08;;;;;;;8.87;1.60;;;;;;;;;;4934500;28;20218;-61
2022/01/20 12:31:46;;;;;;;7.45;1.58;;;;;;;;;;4936265;29;20226;-60
2022/01/20 12:34:12;;;;;;;8.23;1.53;;;;;;;;;;4944627;28;20305;-61
2022/01/20 12:36:39;;;;;;;10.18;1.60;;;;;;;;;;4954086;28;20305;-60
2022/01/20 12:39:04;;;;;;;12.68;1.52;;;;;;;;;;4954647;28;20258;-61
2022/01/20 12:41:30;;;;;;;8.17;1.83;;;;;;;;;;4955530;28;20300;-67
2022/01/20 12:44:00;;;;;;;9.33;1.73;;;;;;;;;;4954518;29;20226;-67
2022/01/20 12:46:26;;;;;;;12.18;1.73;;;;;;;;;;4953387;28;20219;-67
2022/01/20 12:48:52;;;;;;;11.63;1.90;;;;;;;;;;4954392;29;20257;-68
2022/01/20 12:51:17;;;;;;;10.95;1.70;;;;;;;;;;4955182;28;20314;-68
2022/01/20 12:53:45;;;;;;;14.32;1.92;;;;;;;;;;4954726;28;20228;-69
2022/01/20 12:56:11;;;;;;;13.90;2.00;;;;;;;;;;4954898;28;20222;-69
2022/01/20 12:58:51;;;;;;;11.23;1.80;;;;;;;;;;4955437;28;20254;-69
2022/01/20 13:01:16;;;;;;;8.68;1.85;;;;;;;;;;4943968;28;20222;-62
2022/01/20 13:03:41;;;;;;;12.50;1.98;;;;;;;;;;4935058;29;20219;-62
2022/01/20 13:06:10;;;;;;;13.13;2.05;;;;;;;;;;4933743;29;20698;-62
2022/01/20 13:08:39;;;;;;;10.50;1.90;;;;;;;;;;4934808;29;20212;-62
2022/01/20 13:11:05;;;;;;;8.23;1.83;;;;;;;;;;4952019;28;20622;-62
2022/01/20 13:13:30;;;;;;;14.23;2.20;;;;;;;;;;4954397;28;20222;-62
2022/01/20 13:15:56;;;;;;;13.43;2.13;;;;;;;;;;4955053;28;20237;-62
2022/01/20 13:18:21;;;;;;;9.82;1.95;;;;;;;;;;4954754;28;20566;-62
2022/01/20 13:20:55;;;;;;;12.38;2.03;;;;;;;;;;4952488;28;20645;-63
2022/01/20 13:25:45;;;;;;;13.77;2.22;;;;;;;;;;4995461;28;20576;-63
2022/01/20 13:28:11;;;;;;;12.80;2.30;;;;;;;;;;4994435;28;20213;-63
2022/01/20 13:30:47;;;;;;;11.18;1.98;;;;;;;;;;5013216;28;20295;-62
2022/01/20 13:33:14;;;;;;;14.77;2.40;;;;;;;;;;4995605;28;20991;-62
2022/01/20 13:35:40;;;;;;;14.70;2.50;;;;;;;;;;5012090;28;20765;-63
2022/01/20 13:38:07;;;;;;;12.23;2.40;;;;;;;;;;5012121;28;20311;-63
2022/01/20 13:40:32;;;;;;;14.80;2.30;;;;;;;;;;4995317;28;20562;-61
2022/01/20 13:45:39;;;;;;;14.40;2.00;;;;;;;;;;4994480;28;20215;-61
2022/01/20 13:48:04;;;;;;;12.23;2.00;;;;;;;;;;5011643;28;20266;-62
2022/01/20 13:50:31;;;;;;;9.55;1.77;;;;;;;;;;5012074;28;20220;-62
2022/01/20 13:52:57;;;;;;;11.30;1.70;;;;;;;;;;4995247;28;20214;-62
2022/01/20 13:55:24;;;;;;;9.20;1.60;;;;;;;;;;5011211;28;20204;-61
2022/01/20 13:57:49;;;;;;;13.77;1.88;;;;;;;;;;4994994;28;20278;-62
2022/01/20 14:00:14;;;;;;;7.85;1.67;;;;;;;;;;4989576;28;20287;-62
2022/01/20 14:02:40;;;;;;;10.48;1.77;;;;;;;;;;4992148;28;20220;-62
2022/01/20 14:05:06;;;;;;;11.80;1.85;;;;;;;;;;4992527;28;20209;-62
2022/01/20 14:07:33;;;;;;;11.23;1.90;;;;;;;;;;4993130;28;20217;-62
2022/01/20 14:09:58;;;;;;;10.93;1.70;;;;;;;;;;4992151;28;20221;-62
2022/01/20 14:12:23;;;;;;;12.18;2.00;;;;;;;;;;4992254;28;20217;-62
2022/01/20 14:14:48;;;;;;;10.18;1.60;;;;;;;;;;4992933;28;20220;-62
2022/01/20 14:17:16;;;;;;;13.57;2.43;;;;;;;;;;4980585;28;20599;-62
2022/01/20 14:19:43;;;;;;;11.35;2.00;;;;;;;;;;4973601;28;20213;-62
2022/01/20 14:22:09;;;;;;;12.60;3.03;;;;;;;;;;4977988;28;20257;-62
2022/01/20 14:24:34;;;;;;;12.35;1.88;;;;;;;;;;4956128;28;20248;-62
2022/01/20 14:27:09;;;;;;;12.30;2.08;;;;;;;;;;4973303;28;20210;-62
2022/01/20 14:29:34;;;;;;;9.50;2.25;;;;;;;;;;4973054;28;20657;-62
2022/01/20 14:32:00;;;;;;;12.00;2.60;;;;;;;;;;4989036;28;20299;-62
2022/01/20 14:34:25;;;;;;;26.00;11.50;;;;;;;;;;4992312;28;20295;-62
2022/01/20 14:36:50;;;;;;;23.33;8.37;;;;;;;;;;4992732;28;20311;-61
2022/01/20 14:39:15;;;;;;;17.87;5.83;;;;;;;;;;4991320;28;20559;-62
2022/01/20 14:41:41;;;;;;;13.20;4.82;;;;;;;;;;4992470;28;20220;-62
2022/01/20 14:44:06;;;;;;;13.83;2.73;;;;;;;;;;4992080;28;20214;-62
2022/01/20 14:46:31;;;;;;;10.17;2.43;;;;;;;;;;4991970;28;20570;-62
2022/01/20 14:48:57;;;;;;;15.50;2.23;;;;;;;;;;4992335;28;20598;-62
2022/01/20 14:51:24;;;;;;;15.05;2.08;;;;;;;;;;4979773;28;20221;-62
2022/01/20 14:53:49;;;;;;;8.00;2.08;;;;;;;;;;4955511;28;20217;-62
2022/01/20 14:56:19;;;;;;;12.17;2.30;;;;;;;;;;4972206;28;20214;-62
2022/01/20 14:58:44;;;;;;;13.63;1.60;;;;;;;;;;4988984;28;20312;-62
2022/01/20 15:01:09;;;;;;;11.30;2.73;;;;;;;;;;4990127;28;20300;-61
2022/01/20 15:03:35;;;;;;;10.77;1.80;;;;;;;;;;4985762;28;20225;-61
2022/01/20 15:06:00;;;;;;;11.13;1.40;;;;;;;;;;4985268;28;20292;-61
2022/01/20 15:08:26;;;;;;;8.55;1.90;;;;;;;;;;4987344;28;20665;-61
2022/01/20 15:10:51;;;;;;;7.47;1.33;;;;;;;;;;4995636;28;20731;-61
2022/01/20 15:13:17;;;;;;;8.60;1.50;;;;;;;;;;4994672;28;20229;-61
2022/01/20 15:15:42;;;;;;;12.30;3.40;;;;;;;;;;4996169;28;20676;-61
2022/01/20 15:18:07;;;;;;;8.48;1.40;;;;;;;;;;4977268;28;20230;-61
2022/01/20 15:20:33;;;;;;;11.87;2.50;;;;;;;;;;4975735;28;20224;-61
2022/01/20 15:22:59;;;;;;;17.63;3.17;;;;;;;;;;4994701;28;20224;-61
2022/01/20 15:25:25;;;;;;;7.97;1.43;;;;;;;;;;5014787;28;20619;-61
2022/01/20 15:27:52;;;;;;;8.23;1.30;;;;;;;;;;4997218;28;20800;-62